Time;durP1;ratioP1;P1;durP2;ratioP2;P2;SDS_P1;SDS_P2;PMS_P1;PMS_P2;Temp;Humidity;BMP_temperature;BMP_pressure;BME280_temperature;BME280_humidity;BME280_pressure;Samples;Min_cycle;Max_cycle;Signal;HPM_P1;HPM_P2
2023/03/11 00:01:58;;;;;;;1.47;1.37;;;;;;;3.37;100.00;95015.22;4972175;28;102352;-66
2023/03/11 00:04:25;;;;;;;1.23;1.20;;;;;;;3.28;100.00;95011.41;4971732;28;102485;-66
2023/03/11 00:06:54;;;;;;;1.10;1.10;;;;;;;3.29;100.00;95026.13;4975573;28;102055;-66
2023/03/11 00:09:20;;;;;;;3.20;2.00;;;;;;;3.21;100.00;95028.34;4971478;28;102675;-66
2023/03/11 00:11:48;;;;;;;2.73;1.30;;;;;;;3.16;100.00;95028.28;4970922;28;101899;-66
2023/03/11 00:14:15;;;;;;;1.40;1.30;;;;;;;3.16;100.00;95038.78;4970712;28;105669;-66
2023/03/11 00:16:42;;;;;;;1.40;1.30;;;;;;;3.12;100.00;95040.28;4970193;28;105310;-66
2023/03/11 00:19:10;;;;;;;1.20;1.20;;;;;;;3.13;100.00;95062.88;4971856;28;101796;-66
2023/03/11 00:21:37;;;;;;;1.30;1.30;;;;;;;3.12;100.00;95046.31;4970690;28;104886;-66
2023/03/11 00:24:06;;;;;;;1.33;1.23;;;;;;;3.12;100.00;95061.31;4971322;28;102687;-66
2023/03/11 00:26:33;;;;;;;1.10;1.10;;;;;;;3.12;100.00;95054.19;4971328;28;101824;-66
2023/03/11 00:29:00;;;;;;;1.10;1.00;;;;;;;3.16;100.00;95067.69;4972724;28;102519;-66
2023/03/11 00:31:27;;;;;;;1.20;1.20;;;;;;;3.19;100.00;95061.94;4967711;28;101823;-66
2023/03/11 00:33:56;;;;;;;1.33;1.33;;;;;;;3.18;100.00;95068.22;4968131;28;105610;-66
2023/03/11 00:36:27;;;;;;;1.37;1.27;;;;;;;3.18;100.00;95074.25;4967607;28;105863;-66
2023/03/11 00:38:54;;;;;;;1.20;1.17;;;;;;;3.18;100.00;95087.38;4968531;28;102275;-66
2023/03/11 00:41:23;;;;;;;1.50;1.40;;;;;;;3.19;100.00;95098.72;4951726;28;106309;-66
2023/03/11 00:43:51;;;;;;;1.17;1.17;;;;;;;3.17;100.00;95098.16;4967571;28;105263;-66
2023/03/11 00:46:17;;;;;;;1.63;1.53;;;;;;;3.17;100.00;95108.66;4968056;28;101971;-66
2023/03/11 00:48:44;;;;;;;1.30;1.30;;;;;;;3.19;100.00;95104.78;4971007;28;105025;-66
2023/03/11 00:51:14;;;;;;;1.53;1.43;;;;;;;3.20;100.00;95103.72;4967965;28;102004;-66
2023/03/11 00:53:43;;;;;;;1.67;1.47;;;;;;;3.20;100.00;95087.97;4967944;28;105300;-66
2023/03/11 00:56:11;;;;;;;1.20;1.10;;;;;;;3.24;100.00;95110.13;4984514;28;105161;-66
2023/03/11 00:58:43;;;;;;;1.20;1.10;;;;;;;3.22;100.00;95111.38;4970091;28;101972;-66
2023/03/11 01:01:12;;;;;;;1.10;1.10;;;;;;;3.24;100.00;95115.38;4969736;28;104852;-66
2023/03/11 01:03:40;;;;;;;1.30;1.20;;;;;;;3.23;100.00;95112.97;4969407;28;105078;-66
2023/03/11 01:06:07;;;;;;;1.10;1.10;;;;;;;3.24;100.00;95104.06;4970957;28;101794;-66
2023/03/11 01:08:35;;;;;;;1.10;1.10;;;;;;;3.25;100.00;95124.84;4969948;28;105630;-66
2023/03/11 01:11:03;;;;;;;1.70;1.10;;;;;;;3.25;100.00;95121.41;4972762;28;105609;-66
2023/03/11 01:13:31;;;;;;;0.73;0.73;;;;;;;3.24;100.00;95122.44;4969791;28;105314;-66
2023/03/11 01:16:00;;;;;;;0.90;0.90;;;;;;;3.25;100.00;95113.53;4969122;28;105283;-66
2023/03/11 01:18:27;;;;;;;0.90;0.90;;;;;;;3.25;100.00;95116.16;4969844;28;101863;-66
2023/03/11 01:20:54;;;;;;;1.00;1.00;;;;;;;3.23;100.00;95112.97;4969635;28;105173;-66
2023/03/11 01:23:21;;;;;;;1.07;1.07;;;;;;;3.24;100.00;95104.06;4969011;28;105414;-66
2023/03/11 01:25:49;;;;;;;0.83;0.83;;;;;;;3.25;100.00;95105.66;4971310;28;101911;-66
2023/03/11 01:28:16;;;;;;;1.10;1.10;;;;;;;3.24;100.00;95110.13;4971179;28;102482;-66
2023/03/11 01:30:43;;;;;;;1.27;1.20;;;;;;;3.22;100.00;95111.38;4968968;28;105812;-66
2023/03/11 01:33:16;;;;;;;1.03;1.03;;;;;;;3.22;100.00;95098.25;4972690;28;101960;-66
2023/03/11 01:35:43;;;;;;;0.90;0.90;;;;;;;3.23;100.00;95102.47;4970546;28;102970;-66
2023/03/11 01:38:11;;;;;;;1.00;1.00;;;;;;;3.25;100.00;95100.38;4970752;28;101988;-66
2023/03/11 01:40:41;;;;;;;1.40;1.30;;;;;;;3.21;100.00;95113.19;4969643;28;104950;-66
2023/03/11 01:43:39;;;;;;;0.97;0.97;;;;;;;3.26;100.00;95112.47;4968514;28;105697;-66
2023/03/11 01:46:13;;;;;;;1.20;1.20;;;;;;;3.23;100.00;95113.75;4968899;28;101785;-66
2023/03/11 01:48:46;;;;;;;1.10;1.00;;;;;;;3.24;100.00;95111.94;4969326;28;105469;-66
2023/03/11 01:51:15;;;;;;;1.20;1.20;;;;;;;3.24;100.00;95117.19;4968864;28;105573;-66
2023/03/11 01:53:43;;;;;;;1.20;1.20;;;;;;;3.23;100.00;95121.63;4969200;28;101887;-66
2023/03/11 01:56:10;;;;;;;2.33;2.03;;;;;;;3.22;100.00;95130.53;4971994;28;105338;-66
2023/03/11 01:58:43;;;;;;;1.50;1.40;;;;;;;3.24;100.00;95119.81;4969247;28;101989;-66
2023/03/11 02:01:12;;;;;;;1.50;1.40;;;;;;;3.23;100.00;95124.25;4968629;28;104943;-66
2023/03/11 02:03:42;;;;;;;1.70;1.60;;;;;;;3.23;100.00;95123.47;4968606;28;105866;-66
2023/03/11 02:06:12;;;;;;;1.23;1.23;;;;;;;3.22;100.00;95114.00;4969120;28;101887;-66
2023/03/11 02:08:42;;;;;;;2.20;1.50;;;;;;;3.12;100.00;95121.69;4969029;28;105652;-66
2023/03/11 02:11:15;;;;;;;1.47;1.37;;;;;;;3.05;100.00;95134.16;4968558;28;105136;-66
2023/03/11 02:13:45;;;;;;;1.60;1.50;;;;;;;3.00;100.00;95131.47;4969216;28;101870;-66
2023/03/11 02:16:12;;;;;;;1.60;1.50;;;;;;;3.04;100.00;95129.94;4969051;28;105035;-66
2023/03/11 02:18:40;;;;;;;1.77;1.50;;;;;;;2.96;100.00;95120.59;4971668;28;106067;-66
2023/03/11 02:21:17;;;;;;;2.30;1.90;;;;;;;2.97;100.00;95130.09;4969117;28;105492;-66
2023/03/11 02:23:50;;;;;;;1.80;1.70;;;;;;;3.01;100.00;95131.19;4968028;28;105550;-66
2023/03/11 02:26:23;;;;;;;2.00;1.90;;;;;;;2.93;100.00;95109.78;4970490;28;101780;-66
2023/03/11 02:28:54;;;;;;;1.50;1.47;;;;;;;2.92;100.00;95126.56;4968927;28;104506;-66
2023/03/11 02:31:22;;;;;;;1.70;1.60;;;;;;;2.92;100.00;95127.38;4968226;28;105830;-66
2023/03/11 02:33:53;;;;;;;1.90;1.80;;;;;;;2.80;100.00;95123.19;4968552;28;102215;-66
2023/03/11 02:36:38;;;;;;;1.50;1.40;;;;;;;2.80;100.00;95139.72;4968709;28;105027;-66
2023/03/11 02:39:08;;;;;;;1.50;1.50;;;;;;;2.78;100.00;95112.91;4968231;28;105117;-66
2023/03/11 02:41:38;;;;;;;1.90;1.80;;;;;;;2.77;100.00;95113.13;4972270;28;101706;-66
2023/03/11 02:44:10;;;;;;;1.73;1.63;;;;;;;2.73;100.00;95127.78;4967912;28;105207;-66
2023/03/11 02:46:41;;;;;;;2.20;1.93;;;;;;;2.75;100.00;95123.88;4970032;28;101708;-66
2023/03/11 02:49:10;;;;;;;2.20;1.97;;;;;;;2.74;100.00;95113.63;4968663;28;105258;-66
2023/03/11 02:51:38;;;;;;;3.17;2.07;;;;;;;2.71;100.00;95124.56;4968039;28;105711;-66
2023/03/11 02:54:06;;;;;;;2.50;1.90;;;;;;;2.72;100.00;95128.78;4968480;28;101875;-66
2023/03/11 02:56:37;;;;;;;2.40;2.20;;;;;;;2.73;100.00;95131.19;4971618;28;104693;-66
2023/03/11 02:59:04;;;;;;;2.80;1.90;;;;;;;2.72;100.00;95128.78;4971343;28;105662;-66
2023/03/11 03:01:32;;;;;;;1.90;1.70;;;;;;;2.68;100.00;95125.03;4974572;28;101862;-66
2023/03/11 03:03:59;;;;;;;2.03;1.90;;;;;;;2.70;100.00;95125.59;4971307;28;105329;-66
2023/03/11 03:06:30;;;;;;;2.30;2.10;;;;;;;2.67;100.00;95126.06;4971849;28;101901;-66
2023/03/11 03:08:57;;;;;;;2.33;2.00;;;;;;;2.65;100.00;95131.56;4973156;28;102389;-66
2023/03/11 03:11:25;;;;;;;2.33;2.10;;;;;;;2.62;100.00;95131.22;4971306;28;105521;-66
2023/03/11 03:13:51;;;;;;;2.10;2.00;;;;;;;2.60;100.00;95128.00;4971768;28;101970;-66
2023/03/11 03:16:18;;;;;;;2.07;1.87;;;;;;;2.59;100.00;95131.66;4973121;28;102859;-66
2023/03/11 03:18:47;;;;;;;2.57;2.10;;;;;;;2.54;100.00;95121.06;4972661;28;102500;-66
2023/03/11 03:21:14;;;;;;;2.77;2.33;;;;;;;2.47;100.00;95129.06;4971578;28;102307;-66
2023/03/11 03:23:41;;;;;;;2.57;2.37;;;;;;;2.44;100.00;95133.97;4974363;28;104113;-66
2023/03/11 03:26:08;;;;;;;2.60;2.20;;;;;;;2.40;100.00;95143.34;4971448;28;101859;-66
2023/03/11 03:28:37;;;;;;;2.30;2.20;;;;;;;2.44;100.00;95140.03;4971605;28;104905;-66
2023/03/11 03:31:08;;;;;;;2.67;2.20;;;;;;;2.44;100.00;95144.47;4970531;28;105043;-66
2023/03/11 03:33:37;;;;;;;2.70;2.50;;;;;;;2.37;100.00;95139.38;4971466;28;101776;-66
2023/03/11 03:36:09;;;;;;;3.30;2.77;;;;;;;2.36;100.00;95152.69;4973008;28;102941;-66
2023/03/11 03:38:42;;;;;;;3.17;2.37;;;;;;;2.36;100.00;95157.94;4970700;28;105559;-66
2023/03/11 03:41:09;;;;;;;2.43;2.13;;;;;;;2.35;100.00;95158.97;4971360;28;101952;-66
2023/03/11 03:43:39;;;;;;;2.30;2.10;;;;;;;2.32;100.00;95157.63;4971276;28;104795;-66
2023/03/11 03:46:07;;;;;;;2.70;2.50;;;;;;;2.31;100.00;95165.69;4973759;28;105364;-66
2023/03/11 03:48:42;;;;;;;2.60;2.40;;;;;;;2.30;100.00;95164.09;4971378;28;104095;-66
2023/03/11 03:51:13;;;;;;;2.70;2.50;;;;;;;2.34;100.00;95175.72;4970567;28;105458;-66
2023/03/11 03:53:57;;;;;;;2.43;2.30;;;;;;;2.32;100.00;95172.53;4971030;28;102017;-66
2023/03/11 03:56:25;;;;;;;2.50;2.30;;;;;;;2.29;100.00;95178.25;4971207;28;105770;-66
2023/03/11 03:58:53;;;;;;;2.73;2.53;;;;;;;2.38;100.00;95192.59;4970242;28;105116;-66
2023/03/11 04:01:21;;;;;;;2.60;2.40;;;;;;;2.29;100.00;95194.00;4970783;28;102087;-66
2023/03/11 04:03:49;;;;;;;2.60;2.40;;;;;;;2.29;100.00;95192.16;4971175;28;105344;-66
2023/03/11 04:06:20;;;;;;;2.70;2.30;;;;;;;2.32;100.00;95193.53;4970079;28;105262;-66
2023/03/11 04:08:53;;;;;;;3.30;2.70;;;;;;;2.32;100.00;95180.41;4974377;28;101775;-66
2023/03/11 04:11:22;;;;;;;2.90;2.50;;;;;;;2.31;100.00;95187.50;4970142;28;104947;-66
2023/03/11 04:13:50;;;;;;;3.13;2.83;;;;;;;2.33;100.00;95179.38;4972106;28;101812;-66
2023/03/11 04:16:19;;;;;;;3.00;2.57;;;;;;;2.34;100.00;95183.59;4970684;28;105009;-66
2023/03/11 04:18:47;;;;;;;2.83;2.60;;;;;;;2.28;100.00;95192.38;4970272;28;105090;-66
2023/03/11 04:21:14;;;;;;;2.97;2.50;;;;;;;2.24;100.00;95196.50;4970869;28;102084;-66
2023/03/11 04:23:43;;;;;;;3.10;2.67;;;;;;;2.22;100.00;95214.25;4971820;28;101738;-66
2023/03/11 04:26:11;;;;;;;3.17;2.80;;;;;;;2.15;100.00;95209.16;4969964;28;104671;-66
2023/03/11 04:28:38;;;;;;;2.80;2.60;;;;;;;2.23;100.00;95210.59;4970531;28;101926;-66
2023/03/11 04:31:05;;;;;;;3.33;3.03;;;;;;;2.27;100.00;95207.31;4973508;28;105532;-66
2023/03/11 04:33:34;;;;;;;3.30;3.00;;;;;;;2.22;100.00;95214.25;4970555;28;101884;-66
2023/03/11 04:36:05;;;;;;;4.37;3.43;;;;;;;2.34;100.00;95197.50;4972019;28;102299;-66
2023/03/11 04:38:33;;;;;;;3.20;2.30;;;;;;;2.32;100.00;95207.44;4969441;28;105414;-66
2023/03/11 04:41:02;;;;;;;2.70;2.50;;;;;;;2.31;100.00;95195.38;4970404;28;101930;-66
2023/03/11 04:43:29;;;;;;;2.80;2.60;;;;;;;2.28;100.00;95206.28;4970238;28;104912;-66
2023/03/11 04:45:56;;;;;;;3.30;2.97;;;;;;;2.26;100.00;95204.94;4970959;28;102750;-66
2023/03/11 04:48:25;;;;;;;2.40;2.30;;;;;;;2.24;100.00;95205.16;4970313;28;102116;-66
2023/03/11 04:50:52;;;;;;;4.07;2.83;;;;;;;2.28;100.00;95208.09;4970385;28;104742;-66
2023/03/11 04:53:19;;;;;;;2.33;2.23;;;;;;;2.33;100.00;95209.03;4972625;28;101947;-66
2023/03/11 04:55:47;;;;;;;2.47;2.10;;;;;;;2.34;100.00;95192.25;4970065;28;105288;-66
2023/03/11 04:58:16;;;;;;;2.10;2.00;;;;;;;2.28;100.00;95195.00;4969388;28;104876;-66
2023/03/11 05:00:46;;;;;;;2.73;1.70;;;;;;;2.27;100.00;95191.59;4970140;28;101857;-66
2023/03/11 05:03:15;;;;;;;1.30;1.30;;;;;;;2.28;100.00;95195.00;4968787;28;105393;-66
2023/03/11 05:05:42;;;;;;;1.23;1.23;;;;;;;2.30;100.00;95198.22;4967994;28;105632;-66
2023/03/11 05:08:09;;;;;;;1.30;1.20;;;;;;;2.30;100.00;95187.72;4970208;28;101801;-66
2023/03/11 05:10:36;;;;;;;1.17;1.17;;;;;;;2.28;100.00;95198.44;4968630;28;105149;-66
2023/03/11 05:13:06;;;;;;;1.30;1.20;;;;;;;2.30;100.00;95206.84;4971385;28;105370;-66
2023/03/11 05:15:38;;;;;;;1.67;1.57;;;;;;;2.30;100.00;95201.59;4968778;28;105154;-66
2023/03/11 05:18:06;;;;;;;1.77;1.30;;;;;;;2.31;100.00;95205.03;4967378;28;105087;-66
2023/03/11 05:20:34;;;;;;;1.50;1.40;;;;;;;2.33;100.00;95213.47;4968376;28;102030;-66
2023/03/11 05:23:02;;;;;;;1.70;1.60;;;;;;;2.32;100.00;95215.31;4968492;28;105314;-66
2023/03/11 05:25:31;;;;;;;2.33;1.47;;;;;;;2.30;100.00;95225.22;4967845;28;104784;-66
2023/03/11 05:27:58;;;;;;;1.67;1.57;;;;;;;2.33;100.00;95210.84;4968469;28;102067;-66
2023/03/11 05:30:26;;;;;;;1.10;1.10;;;;;;;2.30;100.00;95217.34;4968293;28;104998;-66
2023/03/11 05:32:56;;;;;;;1.47;1.37;;;;;;;2.35;100.00;95222.72;4967504;28;105445;-66
2023/03/11 05:35:24;;;;;;;2.10;1.90;;;;;;;2.35;100.00;95229.78;4971786;28;101749;-66
2023/03/11 05:37:52;;;;;;;1.70;1.40;;;;;;;2.34;100.00;95231.63;4967403;28;105163;-66
2023/03/11 05:40:20;;;;;;;1.50;1.40;;;;;;;2.36;100.00;95223.53;4968193;28;101961;-66
2023/03/11 05:42:47;;;;;;;1.50;1.40;;;;;;;2.35;100.00;95245.53;4968224;28;105385;-66
2023/03/11 05:45:15;;;;;;;1.57;1.47;;;;;;;2.37;100.00;95239.03;4967201;28;105064;-66
2023/03/11 05:47:45;;;;;;;1.87;1.60;;;;;;;2.37;100.00;95248.72;4968080;28;102073;-66
2023/03/11 05:50:15;;;;;;;4.63;3.67;;;;;;;2.35;100.00;95251.56;4968127;28;105167;-66
2023/03/11 05:52:45;;;;;;;1.43;1.33;;;;;;;2.29;100.00;95268.22;4967089;28;105234;-65
2023/03/11 05:55:12;;;;;;;1.87;1.67;;;;;;;2.35;100.00;95253.41;4967731;28;101885;-66
2023/03/11 05:57:42;;;;;;;1.60;1.50;;;;;;;2.33;100.00;95252.81;4967804;28;105687;-66
2023/03/11 06:00:11;;;;;;;1.30;1.20;;;;;;;2.38;100.00;95261.63;4969212;28;101787;-66
2023/03/11 06:02:40;;;;;;;1.30;1.20;;;;;;;2.38;100.00;95256.38;4917813;28;1451139;-66
2023/03/11 06:05:11;;;;;;;1.50;1.40;;;;;;;2.42;100.00;95256.72;4965729;28;104833;-66
2023/03/11 06:07:40;;;;;;;2.07;1.87;;;;;;;2.44;100.00;95255.47;4989067;28;101992;-66
2023/03/11 06:10:09;;;;;;;1.93;1.83;;;;;;;2.34;100.00;95251.78;4990633;28;102404;-65
2023/03/11 06:12:39;;;;;;;1.97;1.73;;;;;;;2.33;100.00;95258.06;4988528;28;105811;-64
2023/03/11 06:15:15;;;;;;;2.67;2.20;;;;;;;2.26;100.00;95258.19;4988925;28;101944;-64
2023/03/11 06:17:43;;;;;;;2.37;2.17;;;;;;;2.19;100.00;95261.94;4971965;28;105182;-64
2023/03/11 06:20:11;;;;;;;2.80;2.30;;;;;;;2.06;100.00;95268.19;4965639;28;105381;-64
2023/03/11 06:22:43;;;;;;;2.47;2.27;;;;;;;2.09;100.00;95261.69;4949491;28;105026;-64
2023/03/11 06:25:11;;;;;;;2.87;2.67;;;;;;;2.21;100.00;95270.38;4962965;28;103750;-64
2023/03/11 06:27:40;;;;;;;2.40;2.20;;;;;;;2.16;100.00;95273.69;4933318;28;102037;-64
2023/03/11 06:30:09;;;;;;;2.70;2.40;;;;;;;2.26;100.00;95270.50;4948318;28;104991;-64
2023/03/11 06:33:29;;;;;;;1.50;1.40;;;;;;;2.22;100.00;95282.44;4948763;28;104690;-64
2023/03/11 06:35:58;;;;;;;1.30;1.10;;;;;;;2.28;100.00;95289.41;4967556;28;102131;-64
2023/03/11 06:38:26;;;;;;;1.77;1.30;;;;;;;2.28;100.00;95289.41;4968311;28;105557;-64
2023/03/11 06:40:53;;;;;;;1.70;1.20;;;;;;;2.34;100.00;95293.75;4964894;28;105246;-64
2023/03/11 06:43:46;;;;;;;1.40;1.30;;;;;;;2.33;100.00;95302.66;4952742;28;101864;-64
2023/03/11 06:46:17;;;;;;;1.33;1.30;;;;;;;2.24;100.00;95309.25;4986212;28;105129;-64
2023/03/11 06:48:45;;;;;;;1.27;1.20;;;;;;;2.15;100.00;95318.47;4968942;28;102173;-64
2023/03/11 06:51:14;;;;;;;1.20;1.20;;;;;;;2.15;100.00;95321.91;4968612;28;104870;-64
2023/03/11 06:54:00;;;;;;;1.27;1.10;;;;;;;2.11;100.00;95325.19;4968083;28;104821;-64
2023/03/11 06:56:28;;;;;;;1.83;1.50;;;;;;;2.17;100.00;95313.78;4968925;28;101832;-64
2023/03/11 06:59:00;;;;;;;1.43;1.33;;;;;;;2.11;100.00;95333.03;4969737;28;105227;-64
2023/03/11 07:01:32;;;;;;;2.47;1.70;;;;;;;2.07;100.00;95330.06;4988833;28;102632;-64
2023/03/11 07:04:01;;;;;;;1.47;1.40;;;;;;;2.04;100.00;95337.59;4985569;28;103067;-64
2023/03/11 07:06:29;;;;;;;1.80;1.47;;;;;;;2.04;100.00;95332.34;4967186;28;105026;-64
2023/03/11 07:09:07;;;;;;;2.07;1.60;;;;;;;2.03;100.00;95336.00;4969924;28;101821;-64
2023/03/11 07:11:38;;;;;;;2.10;1.60;;;;;;;2.07;100.00;95331.91;4967996;28;104985;-64
2023/03/11 07:14:30;;;;;;;2.00;1.60;;;;;;;2.06;100.00;95343.41;4949826;28;103070;-64
2023/03/11 07:16:57;;;;;;;1.57;1.47;;;;;;;2.03;100.00;95362.22;4966518;28;101672;-64
2023/03/11 07:19:33;;;;;;;1.43;1.13;;;;;;;1.97;100.00;95352.63;4988196;28;105397;-65
2023/03/11 07:22:00;;;;;;;1.73;1.50;;;;;;;2.05;100.00;95349.66;4984012;28;102665;-64
2023/03/11 07:24:33;;;;;;;1.30;1.30;;;;;;;2.04;100.00;95358.56;4969433;28;102138;-64
2023/03/11 07:27:00;;;;;;;2.07;1.70;;;;;;;2.01;100.00;95348.50;4960748;28;103537;-64
2023/03/11 07:29:27;;;;;;;2.30;2.10;;;;;;;2.12;100.00;95350.38;4968488;28;101877;-65
2023/03/11 07:31:54;;;;;;;2.37;2.17;;;;;;;2.18;100.00;95365.22;4965273;28;105630;-64
2023/03/11 07:34:26;;;;;;;1.53;1.50;;;;;;;2.16;100.00;95368.06;4949757;28;102568;-64
2023/03/11 07:36:53;;;;;;;1.40;1.30;;;;;;;2.09;100.00;95371.81;4973718;28;101728;-65
2023/03/11 07:39:19;;;;;;;1.50;1.40;;;;;;;2.14;100.00;95379.81;4988075;28;105093;-65
2023/03/11 07:41:48;;;;;;;6.67;2.40;;;;;;;2.08;100.00;95375.47;4990572;28;102560;-65
2023/03/11 07:44:51;;;;;;;2.50;1.60;;;;;;;2.12;100.00;95382.66;4992885;28;102195;-65
2023/03/11 07:47:18;;;;;;;1.70;1.60;;;;;;;2.22;100.00;95387.34;4967686;28;105379;-64
2023/03/11 07:49:45;;;;;;;1.50;1.40;;;;;;;2.18;100.00;95378.34;4973429;28;102461;-65
2023/03/11 07:52:12;;;;;;;2.30;1.70;;;;;;;2.26;100.00;95388.50;4972236;28;102359;-65
2023/03/11 07:54:50;;;;;;;1.20;1.20;;;;;;;2.16;100.00;95386.44;4969207;28;102749;-65
2023/03/11 07:57:18;;;;;;;1.30;1.20;;;;;;;2.17;100.00;95393.28;4972565;28;101914;-65
2023/03/11 07:59:45;;;;;;;1.13;1.13;;;;;;;2.11;100.00;95388.09;4970373;28;102369;-65
2023/03/11 08:02:12;;;;;;;1.20;1.20;;;;;;;2.13;100.00;95388.69;4971137;28;102479;-65
2023/03/11 08:04:40;;;;;;;1.60;1.50;;;;;;;2.08;100.00;95397.22;4972855;28;101838;-65
2023/03/11 08:07:07;;;;;;;3.40;1.50;;;;;;;2.21;100.00;95411.97;4972058;28;105765;-65
2023/03/11 08:09:35;;;;;;;2.10;1.30;;;;;;;2.34;100.00;95417.03;4968139;28;105621;-65
2023/03/11 08:12:02;;;;;;;1.83;1.10;;;;;;;2.31;100.00;95413.06;4989854;28;101853;-65
2023/03/11 08:14:32;;;;;;;1.60;1.50;;;;;;;2.34;100.00;95406.53;4974003;28;102705;-65
2023/03/11 08:16:59;;;;;;;1.40;1.30;;;;;;;2.38;100.00;95405.88;4977930;28;101784;-65
2023/03/11 08:19:26;;;;;;;2.07;1.70;;;;;;;2.40;100.00;95408.28;4990824;28;105361;-64
2023/03/11 08:21:53;;;;;;;1.70;1.60;;;;;;;2.34;100.00;95401.28;4976519;28;103062;-65
2023/03/11 08:24:24;;;;;;;1.50;1.40;;;;;;;2.43;100.00;95405.22;4970949;28;101905;-65
2023/03/11 08:26:51;;;;;;;1.70;1.20;;;;;;;2.41;100.00;95402.03;4972471;28;102312;-64
2023/03/11 08:29:18;;;;;;;2.17;1.60;;;;;;;2.59;100.00;95409.81;4970217;28;105811;-65
2023/03/11 08:31:47;;;;;;;1.30;1.20;;;;;;;2.52;100.00;95407.28;4970644;28;101750;-65
2023/03/11 08:34:15;;;;;;;1.50;1.30;;;;;;;2.69;100.00;95410.06;4974852;28;102821;-65
2023/03/11 08:36:42;;;;;;;1.97;1.30;;;;;;;2.62;100.00;95409.38;4970701;28;101966;-64
2023/03/11 08:39:09;;;;;;;1.40;1.30;;;;;;;2.68;100.00;95413.72;4970738;28;105167;-67
2023/03/11 08:41:36;;;;;;;2.27;1.60;;;;;;;2.66;100.00;95415.75;4971456;28;102600;-64
2023/03/11 08:44:07;;;;;;;2.37;1.60;;;;;;;2.79;100.00;95415.56;4970411;28;102010;-64
2023/03/11 08:46:36;;;;;;;1.00;1.00;;;;;;;2.76;100.00;95421.25;4970648;28;105643;-67
2023/03/11 08:49:05;;;;;;;1.30;1.20;;;;;;;2.61;100.00;95415.63;4969029;28;105967;-67
2023/03/11 08:51:34;;;;;;;1.80;1.30;;;;;;;2.63;100.00;95418.84;4983000;28;102048;-67
2023/03/11 08:54:03;;;;;;;1.40;1.30;;;;;;;2.79;100.00;95426.06;4989328;28;105252;-67
2023/03/11 08:56:30;;;;;;;1.50;1.40;;;;;;;2.66;100.00;95415.75;4990196;28;103572;-67
2023/03/11 08:58:58;;;;;;;1.83;1.60;;;;;;;2.76;100.00;95416.00;4991475;28;102827;-67
2023/03/11 09:01:25;;;;;;;2.00;1.60;;;;;;;2.95;100.00;95420.16;4979296;28;105568;-68
2023/03/11 09:04:09;;;;;;;1.67;1.27;;;;;;;2.81;100.00;95424.00;4953842;28;102445;-67
2023/03/11 09:06:36;;;;;;;1.30;1.30;;;;;;;2.98;100.00;95419.69;4971477;28;103018;-67
2023/03/11 09:09:04;;;;;;;1.73;1.23;;;;;;;2.91;100.00;95419.00;4969535;28;105324;-65
2023/03/11 09:11:31;;;;;;;1.83;1.10;;;;;;;3.00;100.00;95415.03;4974082;28;101949;-65
2023/03/11 09:14:00;;;;;;;1.20;1.10;;;;;;;2.95;100.00;95428.03;4991463;28;102325;-65
2023/03/11 09:16:27;;;;;;;1.37;1.27;;;;;;;3.03;100.00;95415.38;4992838;28;105926;-65
2023/03/11 09:18:54;;;;;;;1.23;1.20;;;;;;;3.21;100.00;95423.16;4991432;28;102291;-65
2023/03/11 09:21:23;;;;;;;1.60;1.50;;;;;;;3.01;100.00;95419.25;4990746;28;102580;-65
2023/03/11 09:23:53;;;;;;;1.37;1.27;;;;;;;3.07;100.00;95431.47;4971146;28;101965;-65
2023/03/11 09:26:20;;;;;;;1.40;1.27;;;;;;;3.03;100.00;95438.19;4990080;28;105283;-66
2023/03/11 09:28:48;;;;;;;1.57;1.40;;;;;;;3.18;100.00;95433.31;4990694;28;102687;-64
2023/03/11 09:31:16;;;;;;;1.30;1.20;;;;;;;3.16;100.00;95432.75;4989725;28;101977;-64
2023/03/11 09:33:55;;;;;;;2.17;1.20;;;;;;;3.24;100.00;95435.03;4991144;28;102974;-64
2023/03/11 09:36:23;;;;;;;2.00;1.40;;;;;;;3.26;100.00;95432.97;4989225;28;105740;-64
2023/03/11 09:38:50;;;;;;;3.33;1.60;;;;;;;3.26;100.00;95438.22;4994529;28;101894;-64
2023/03/11 09:41:27;;;;;;;2.30;1.30;;;;;;;3.43;100.00;95450.44;4988091;28;102668;-64
2023/03/11 09:44:19;;;;;;;2.10;1.00;;;;;;;3.07;100.00;95444.59;4971266;28;101715;-64
2023/03/11 09:47:14;;;;;;;1.30;1.20;;;;;;;3.11;100.00;95446.53;4969731;28;105588;-64
2023/03/11 09:49:56;;;;;;;1.67;1.10;;;;;;;3.03;100.00;95443.44;4970776;28;102511;-64
2023/03/11 09:52:33;;;;;;;1.70;1.00;;;;;;;3.02;100.00;95444.47;4981175;28;101892;-64
2023/03/11 09:55:03;;;;;;;1.00;1.00;;;;;;;3.07;100.00;95455.91;4988721;28;102641;-64
2023/03/11 09:57:33;;;;;;;1.10;1.10;;;;;;;3.22;99.95;95452.84;4971276;28;102675;-65
2023/03/11 10:00:04;;;;;;;3.60;1.13;;;;;;;3.29;97.81;95453.53;4974146;28;103310;-65
2023/03/11 10:02:40;;;;;;;1.70;1.30;;;;;;;3.57;91.59;95458.91;4972510;28;102148;-65
2023/03/11 10:05:14;;;;;;;1.60;1.20;;;;;;;3.72;88.94;95459.25;4970593;28;101791;-65
2023/03/11 10:07:45;;;;;;;1.90;1.00;;;;;;;3.47;88.49;95456.84;4970990;28;102888;-65
2023/03/11 10:10:14;;;;;;;1.37;1.27;;;;;;;3.55;93.64;95460.97;4969022;28;105017;-65
2023/03/11 10:12:52;;;;;;;2.70;1.80;;;;;;;3.70;88.55;95456.84;4970861;28;101779;-65
2023/03/11 10:15:24;;;;;;;1.63;1.20;;;;;;;3.68;89.70;95453.66;4970293;28;102879;-64
2023/03/11 10:18:14;;;;;;;1.40;1.30;;;;;;;3.84;89.48;95452.94;4968393;28;105229;-64
2023/03/11 10:20:49;;;;;;;1.40;1.10;;;;;;;3.87;85.63;95454.31;4969188;28;102025;-64
2023/03/11 10:23:27;;;;;;;1.43;1.13;;;;;;;3.88;82.32;95463.78;4968886;28;105528;-64
2023/03/11 10:26:01;;;;;;;1.47;1.17;;;;;;;3.80;84.31;95451.00;4973250;28;102940;-65
2023/03/11 10:28:33;;;;;;;5.07;1.50;;;;;;;3.83;85.38;95461.84;4968762;28;103517;-65
2023/03/11 10:31:07;;;;;;;2.93;1.30;;;;;;;4.11;84.02;95469.00;4968307;28;105614;-65
2023/03/11 10:33:38;;;;;;;1.30;1.20;;;;;;;3.97;84.16;95462.38;4970500;28;101943;-64
2023/03/11 10:36:11;;;;;;;2.57;1.40;;;;;;;4.28;83.96;95464.59;4968879;28;105404;-64
2023/03/11 10:38:42;;;;;;;1.40;1.30;;;;;;;4.80;88.06;95468.75;4967855;28;105794;-64
2023/03/11 10:41:18;;;;;;;1.40;1.30;;;;;;;4.43;83.22;95463.06;4970259;28;101666;-64
2023/03/11 10:43:50;;;;;;;1.40;1.30;;;;;;;4.80;83.23;95460.88;4970284;28;102329;-64
2023/03/11 10:46:20;;;;;;;1.90;1.50;;;;;;;5.17;74.60;95457.53;4969422;28;103004;-64
2023/03/11 10:48:47;;;;;;;1.30;1.20;;;;;;;5.34;71.69;95460.19;4972034;28;101994;-65
2023/03/11 10:51:21;;;;;;;1.83;1.40;;;;;;;5.05;66.37;95463.91;4968025;28;103632;-64
2023/03/11 10:53:53;;;;;;;1.60;1.23;;;;;;;5.60;67.64;95451.59;4968573;28;101871;-64
2023/03/11 10:56:29;;;;;;;1.10;1.10;;;;;;;5.50;66.55;95462.81;4970046;28;102295;-64
2023/03/11 10:58:56;;;;;;;1.40;1.30;;;;;;;5.61;70.44;95466.38;4969459;28;102710;-64
2023/03/11 11:01:24;;;;;;;2.50;1.20;;;;;;;5.58;65.30;95472.97;4969783;28;101756;-65
2023/03/11 11:03:54;;;;;;;1.00;0.97;;;;;;;5.61;67.19;95461.91;4968604;28;105795;-64
2023/03/11 11:06:25;;;;;;;1.30;1.20;;;;;;;6.06;65.44;95469.69;4969465;28;103260;-65
2023/03/11 11:09:18;;;;;;;1.83;1.20;;;;;;;5.33;65.90;95474.38;4968217;28;101784;-64
2023/03/11 11:12:02;;;;;;;1.10;0.93;;;;;;;5.26;66.35;95468.47;4972853;28;102307;-64
2023/03/11 11:14:46;;;;;;;1.20;1.10;;;;;;;5.20;66.83;95466.81;4968374;28;101998;-64
2023/03/11 11:17:19;;;;;;;1.37;1.20;;;;;;;4.98;68.87;95468.53;4970404;28;105318;-64
2023/03/11 11:19:48;;;;;;;1.30;1.20;;;;;;;4.84;73.15;95467.22;4972363;28;104083;-65
2023/03/11 11:22:18;;;;;;;1.10;1.10;;;;;;;5.28;70.41;95456.66;4971582;28;102234;-64
2023/03/11 11:24:50;;;;;;;1.70;1.30;;;;;;;5.28;71.80;95471.66;4971674;28;104863;-64
2023/03/11 11:27:20;;;;;;;2.10;1.40;;;;;;;5.04;75.84;95467.59;4971077;28;105240;-64
2023/03/11 11:29:47;;;;;;;2.57;1.30;;;;;;;5.33;74.38;95464.66;4973056;28;101637;-64
2023/03/11 11:32:20;;;;;;;3.20;1.30;;;;;;;5.37;77.56;95457.06;4975477;28;102282;-64
2023/03/11 11:34:59;;;;;;;1.17;1.03;;;;;;;5.19;78.99;95454.66;4972841;28;101860;-64
2023/03/11 11:37:30;;;;;;;2.13;1.50;;;;;;;5.31;78.17;95455.38;4972409;28;102388;-64
2023/03/11 11:40:08;;;;;;;1.30;1.30;;;;;;;5.14;80.46;95454.59;4970891;28;104965;-64
2023/03/11 11:42:37;;;;;;;1.70;1.40;;;;;;;5.06;78.85;95465.50;4971364;28;102073;-64